createdAt,value
2019-03-26T00:00:08.940Z,1006.37
2019-03-26T00:01:08.934Z,1006.39
2019-03-26T00:02:08.928Z,1006.39
2019-03-26T00:03:08.933Z,1006.33
2019-03-26T00:04:08.911Z,1006.31
2019-03-26T00:05:08.886Z,1006.31
2019-03-26T00:06:08.877Z,1006.30
2019-03-26T00:07:08.886Z,1006.34
2019-03-26T00:08:08.871Z,1006.32
2019-03-26T00:09:08.863Z,1006.29
2019-03-26T00:10:08.836Z,1006.30
2019-03-26T00:11:08.847Z,1006.29
2019-03-26T00:12:08.818Z,1006.32
2019-03-26T00:13:08.798Z,1006.33
2019-03-26T00:14:08.793Z,1006.39
2019-03-26T00:15:08.824Z,1006.36
2019-03-26T00:16:08.784Z,1006.35
2019-03-26T00:17:08.758Z,1006.39
2019-03-26T00:18:08.759Z,1006.36
2019-03-26T00:19:08.737Z,1006.35
2019-03-26T00:20:08.734Z,1006.39
2019-03-26T00:21:08.741Z,1006.40
2019-03-26T00:22:08.706Z,1006.43
2019-03-26T00:23:08.695Z,1006.39
2019-03-26T00:24:08.682Z,1006.36
2019-03-26T00:25:08.682Z,1006.34
2019-03-26T00:26:08.671Z,1006.36
2019-03-26T00:27:08.765Z,1006.41
2019-03-26T00:28:08.657Z,1006.42
2019-03-26T00:29:08.627Z,1006.40
2019-03-26T00:30:08.618Z,1006.39
2019-03-26T00:31:08.625Z,1006.40
2019-03-26T00:32:08.597Z,1006.38
2019-03-26T00:33:08.602Z,1006.38
2019-03-26T00:34:18.611Z,1006.36
2019-03-26T00:35:09.563Z,1006.38
2019-03-26T00:36:08.564Z,1006.33
2019-03-26T00:37:08.553Z,1006.36
2019-03-26T00:38:08.531Z,1006.37
2019-03-26T00:39:08.546Z,1006.36
2019-03-26T00:40:08.513Z,1006.39
2019-03-26T00:41:08.507Z,1006.40
2019-03-26T00:42:08.486Z,1006.37
2019-03-26T00:43:08.478Z,1006.41
2019-03-26T00:44:08.468Z,1006.40
2019-03-26T00:45:08.486Z,1006.43
2019-03-26T00:46:08.444Z,1006.45
2019-03-26T00:47:08.434Z,1006.47
2019-03-26T00:48:08.427Z,1006.53
2019-03-26T00:49:08.431Z,1006.51
2019-03-26T00:50:08.414Z,1006.57
2019-03-26T00:51:08.404Z,1006.56
2019-03-26T00:52:08.387Z,1006.58
2019-03-26T00:53:08.379Z,1006.55
2019-03-26T00:54:08.377Z,1006.55
2019-03-26T00:55:21.585Z,1006.57
2019-03-26T00:56:09.353Z,1006.54
2019-03-26T00:57:08.320Z,1006.58
2019-03-26T00:58:08.319Z,1006.52
2019-03-26T00:59:08.308Z,1006.58
2019-03-26T01:00:08.294Z,1006.58
2019-03-26T01:01:08.282Z,1006.60
2019-03-26T01:02:08.299Z,1006.62
2019-03-26T01:03:08.265Z,1006.63
2019-03-26T01:04:08.254Z,1006.65
2019-03-26T01:05:08.241Z,1006.65
2019-03-26T01:06:08.221Z,1006.63
2019-03-26T01:07:08.244Z,1006.62
2019-03-26T01:08:08.225Z,1006.60
2019-03-26T01:09:08.277Z,1006.63
2019-03-26T01:10:08.183Z,1006.58
2019-03-26T01:11:08.170Z,1006.63
2019-03-26T01:12:08.176Z,1006.61
2019-03-26T01:13:08.148Z,1006.58
2019-03-26T01:14:08.169Z,1006.58
2019-03-26T01:15:08.126Z,1006.54
2019-03-26T01:16:08.111Z,1006.54
2019-03-26T01:17:08.113Z,1006.56
2019-03-26T01:18:08.176Z,1006.54
2019-03-26T01:19:08.098Z,1006.58
2019-03-26T01:20:08.108Z,1006.58
2019-03-26T01:21:08.063Z,1006.59
2019-03-26T01:22:08.084Z,1006.62
2019-03-26T01:23:08.054Z,1006.66
2019-03-26T01:24:08.027Z,1006.64
2019-03-26T01:25:08.031Z,1006.60
2019-03-26T01:26:08.049Z,1006.58
2019-03-26T01:27:07.995Z,1006.62
2019-03-26T01:28:07.991Z,1006.57
2019-03-26T01:29:07.984Z,1006.58
2019-03-26T01:30:07.964Z,1006.61
2019-03-26T01:31:07.953Z,1006.62
2019-03-26T01:32:07.955Z,1006.65
2019-03-26T01:33:07.928Z,1006.63
2019-03-26T01:34:07.917Z,1006.65
2019-03-26T01:35:07.928Z,1006.61
2019-03-26T01:36:07.906Z,1006.60
2019-03-26T01:37:07.885Z,1006.65
2019-03-26T01:38:07.900Z,1006.72
2019-03-26T01:39:07.866Z,1006.68
2019-03-26T01:40:07.876Z,1006.64
2019-03-26T01:41:07.843Z,1006.69
2019-03-26T01:42:07.833Z,1006.63
2019-03-26T01:43:07.825Z,1006.69
2019-03-26T01:44:07.855Z,1006.66
2019-03-26T01:45:07.804Z,1006.72
2019-03-26T01:46:07.796Z,1006.76
2019-03-26T01:47:07.784Z,1006.72
2019-03-26T01:48:07.789Z,1006.68
2019-03-26T01:49:07.773Z,1006.71
2019-03-26T01:50:07.786Z,1006.69
2019-03-26T01:51:07.742Z,1006.62
2019-03-26T01:52:07.731Z,1006.66
2019-03-26T01:53:07.761Z,1006.67
2019-03-26T01:54:07.713Z,1006.65
2019-03-26T01:55:07.713Z,1006.69
2019-03-26T01:56:07.716Z,1006.67
2019-03-26T01:57:07.687Z,1006.67
2019-03-26T01:58:07.677Z,1006.67
2019-03-26T01:59:07.666Z,1006.68
2019-03-26T02:00:07.657Z,1006.67
2019-03-26T02:01:07.634Z,1006.69
2019-03-26T02:02:07.640Z,1006.61
2019-03-26T02:03:07.620Z,1006.72
2019-03-26T02:04:07.614Z,1006.72
2019-03-26T02:05:07.592Z,1006.70
2019-03-26T02:06:07.587Z,1006.69
2019-03-26T02:07:07.592Z,1006.64
2019-03-26T02:08:07.588Z,1006.67
2019-03-26T02:09:07.549Z,1006.75
2019-03-26T02:10:07.542Z,1006.75
2019-03-26T02:11:07.551Z,1006.69
2019-03-26T02:12:07.522Z,1006.71
2019-03-26T02:13:07.512Z,1006.71
2019-03-26T02:14:07.512Z,1006.72
2019-03-26T02:15:07.487Z,1006.75
2019-03-26T02:16:07.483Z,1006.70
2019-03-26T02:17:07.487Z,1006.73
2019-03-26T02:18:07.462Z,1006.81
2019-03-26T02:19:07.455Z,1006.77
2019-03-26T02:20:07.468Z,1006.82
2019-03-26T02:21:07.446Z,1006.86
2019-03-26T02:22:07.418Z,1006.83
2019-03-26T02:23:07.411Z,1006.87
2019-03-26T02:24:07.402Z,1006.86
2019-03-26T02:25:07.394Z,1006.93
2019-03-26T02:26:07.393Z,1006.91
2019-03-26T02:27:07.367Z,1006.89
2019-03-26T02:28:07.356Z,1006.92
2019-03-26T02:29:07.356Z,1006.90
2019-03-26T02:30:07.339Z,1006.86
2019-03-26T02:31:07.333Z,1006.89
2019-03-26T02:32:07.345Z,1006.83
2019-03-26T02:33:07.308Z,1006.89
2019-03-26T02:34:07.301Z,1006.89
2019-03-26T02:35:17.724Z,1006.90
2019-03-26T02:36:08.294Z,1006.91
2019-03-26T02:37:07.274Z,1006.87
2019-03-26T02:38:07.278Z,1006.90
2019-03-26T02:39:07.281Z,1006.91
2019-03-26T02:40:07.236Z,1006.89
2019-03-26T02:41:07.226Z,1006.83
2019-03-26T02:42:07.214Z,1006.90
2019-03-26T02:43:07.213Z,1006.88
2019-03-26T02:44:07.231Z,1006.92
2019-03-26T02:45:07.186Z,1006.86
2019-03-26T02:46:07.176Z,1006.84
2019-03-26T02:47:07.172Z,1006.86
2019-03-26T02:48:07.153Z,1006.85
2019-03-26T02:49:07.164Z,1006.81
2019-03-26T02:50:07.155Z,1006.82
2019-03-26T02:51:07.121Z,1006.82
2019-03-26T02:52:07.139Z,1006.82
2019-03-26T02:53:08.980Z,1006.84
2019-03-26T02:54:07.091Z,1006.79
2019-03-26T02:55:07.081Z,1006.84
2019-03-26T02:56:07.134Z,1006.75
2019-03-26T02:57:07.097Z,1006.84
2019-03-26T02:58:07.063Z,1006.85
2019-03-26T02:59:07.089Z,1006.87
2019-03-26T03:00:07.034Z,1006.91
2019-03-26T03:01:07.051Z,1006.92
2019-03-26T03:02:07.035Z,1006.92
2019-03-26T03:03:07.020Z,1006.88
2019-03-26T03:04:06.988Z,1006.88
2019-03-26T03:05:06.990Z,1006.85
2019-03-26T03:06:06.991Z,1006.86
2019-03-26T03:07:06.971Z,1006.89
2019-03-26T03:08:06.970Z,1006.85
2019-03-26T03:09:06.936Z,1006.90
2019-03-26T03:10:06.932Z,1006.83
2019-03-26T03:11:06.939Z,1006.87
2019-03-26T03:12:06.914Z,1006.86
2019-03-26T03:13:06.900Z,1006.87
2019-03-26T03:14:06.927Z,1006.94
2019-03-26T03:15:06.938Z,1006.93
2019-03-26T03:16:06.874Z,1006.92
2019-03-26T03:17:06.851Z,1006.86
2019-03-26T03:18:06.839Z,1006.97
2019-03-26T03:19:06.834Z,1006.97
2019-03-26T03:20:06.868Z,1006.94
2019-03-26T03:21:06.817Z,1006.96
2019-03-26T03:22:06.797Z,1006.97
2019-03-26T03:23:06.787Z,1006.94
2019-03-26T03:24:06.775Z,1006.91
2019-03-26T03:25:06.780Z,1006.86
2019-03-26T03:26:06.909Z,1006.91
2019-03-26T03:27:06.744Z,1006.89
2019-03-26T03:28:06.735Z,1006.88
2019-03-26T03:29:06.770Z,1006.93
2019-03-26T03:30:06.730Z,1006.86
2019-03-26T03:31:06.717Z,1006.88
2019-03-26T03:32:06.707Z,1006.85
2019-03-26T03:33:06.702Z,1006.85
2019-03-26T03:34:06.674Z,1006.77
2019-03-26T03:35:06.665Z,1006.84
2019-03-26T03:36:06.646Z,1006.84
2019-03-26T03:37:06.644Z,1006.84
2019-03-26T03:38:06.651Z,1006.91
2019-03-26T03:39:06.657Z,1006.88
2019-03-26T03:40:06.709Z,1006.90
2019-03-26T03:41:06.594Z,1006.92
2019-03-26T03:42:06.585Z,1006.95
2019-03-26T03:43:06.603Z,1007.02
2019-03-26T03:44:06.587Z,1007.02
2019-03-26T03:45:06.559Z,1007.01
2019-03-26T03:46:06.541Z,1007.00
2019-03-26T03:47:06.536Z,1007.07
2019-03-26T03:48:06.541Z,1007.09
2019-03-26T03:49:06.516Z,1007.05
2019-03-26T03:50:06.516Z,1007.07
2019-03-26T03:51:06.488Z,1007.04
2019-03-26T03:52:06.475Z,1007.02
2019-03-26T03:53:06.467Z,1007.01
2019-03-26T03:54:06.457Z,1007.04
2019-03-26T03:55:06.444Z,1007.05
2019-03-26T03:56:06.450Z,1007.04
2019-03-26T03:57:06.426Z,1007.06
2019-03-26T03:58:06.421Z,1007.03
2019-03-26T03:59:06.411Z,1007.05
2019-03-26T04:00:06.393Z,1007.06
2019-03-26T04:01:06.383Z,1007.03
2019-03-26T04:02:06.389Z,1007.04
2019-03-26T04:03:06.371Z,1007.06
2019-03-26T04:04:06.358Z,1007.13
2019-03-26T04:05:06.335Z,1007.11
2019-03-26T04:06:09.447Z,1007.16
2019-03-26T04:07:06.314Z,1007.13
2019-03-26T04:08:06.345Z,1007.14
2019-03-26T04:09:06.290Z,1007.16
2019-03-26T04:10:06.286Z,1007.20
2019-03-26T04:11:06.273Z,1007.16
2019-03-26T04:12:06.263Z,1007.18
2019-03-26T04:13:06.250Z,1007.17
2019-03-26T04:14:06.263Z,1007.17
2019-03-26T04:15:06.228Z,1007.17
2019-03-26T04:16:06.247Z,1007.16
2019-03-26T04:17:06.206Z,1007.23
2019-03-26T04:18:06.190Z,1007.21
2019-03-26T04:19:06.183Z,1007.25
2019-03-26T04:20:06.200Z,1007.28
2019-03-26T04:21:06.180Z,1007.19
2019-03-26T04:22:06.153Z,1007.24
2019-03-26T04:23:06.145Z,1007.21
2019-03-26T04:24:06.125Z,1007.24
2019-03-26T04:25:06.121Z,1007.20
2019-03-26T04:26:06.141Z,1007.22
2019-03-26T04:27:06.109Z,1007.23
2019-03-26T04:28:06.082Z,1007.25
2019-03-26T04:29:06.099Z,1007.22
2019-03-26T04:30:06.061Z,1007.19
2019-03-26T04:31:06.059Z,1007.20
2019-03-26T04:32:06.096Z,1007.24
2019-03-26T04:33:06.034Z,1007.22
2019-03-26T04:34:06.017Z,1007.25
2019-03-26T04:35:06.023Z,1007.27
2019-03-26T04:36:06.006Z,1007.30
2019-03-26T04:37:05.990Z,1007.32
2019-03-26T04:38:05.989Z,1007.36
2019-03-26T04:39:05.962Z,1007.35
2019-03-26T04:40:05.972Z,1007.36
2019-03-26T04:41:05.960Z,1007.37
2019-03-26T04:42:05.943Z,1007.32
2019-03-26T04:43:05.921Z,1007.37
2019-03-26T04:44:05.932Z,1007.39
2019-03-26T04:45:05.907Z,1007.40
2019-03-26T04:46:05.886Z,1007.42
2019-03-26T04:47:05.902Z,1007.46
2019-03-26T04:48:05.864Z,1007.44
2019-03-26T04:49:05.871Z,1007.43
2019-03-26T04:50:05.859Z,1007.45
2019-03-26T04:51:05.837Z,1007.44
2019-03-26T04:52:05.840Z,1007.39
2019-03-26T04:53:05.817Z,1007.39
2019-03-26T04:54:05.806Z,1007.35
2019-03-26T04:55:05.788Z,1007.41
2019-03-26T04:56:05.800Z,1007.40
2019-03-26T04:57:05.769Z,1007.43
2019-03-26T04:58:05.756Z,1007.41
2019-03-26T04:59:05.746Z,1007.46
2019-03-26T05:00:05.745Z,1007.46
2019-03-26T05:01:05.739Z,1007.41
2019-03-26T05:02:05.738Z,1007.44
2019-03-26T05:03:05.725Z,1007.39
2019-03-26T05:04:05.690Z,1007.42
2019-03-26T05:05:05.713Z,1007.38
2019-03-26T05:06:05.670Z,1007.42
2019-03-26T05:07:05.654Z,1007.43
2019-03-26T05:08:05.677Z,1007.40
2019-03-26T05:09:05.638Z,1007.37
2019-03-26T05:10:05.623Z,1007.40
2019-03-26T05:11:05.610Z,1007.33
2019-03-26T05:12:05.600Z,1007.28
2019-03-26T05:13:05.596Z,1007.28
2019-03-26T05:14:05.627Z,1007.32
2019-03-26T05:15:05.573Z,1007.34
2019-03-26T05:16:05.555Z,1007.34
2019-03-26T05:17:05.548Z,1007.27
2019-03-26T05:18:05.537Z,1007.29
2019-03-26T05:19:05.522Z,1007.31
2019-03-26T05:20:05.531Z,1007.29
2019-03-26T05:21:05.537Z,1007.28
2019-03-26T05:22:05.507Z,1007.31
2019-03-26T05:23:05.480Z,1007.25
2019-03-26T05:24:05.470Z,1007.30
2019-03-26T05:25:05.529Z,1007.31
2019-03-26T05:26:05.477Z,1007.33
2019-03-26T05:27:05.442Z,1007.30
2019-03-26T05:28:05.426Z,1007.29
2019-03-26T05:29:05.412Z,1007.34
2019-03-26T05:30:05.417Z,1007.30
2019-03-26T05:31:05.397Z,1007.35
2019-03-26T05:32:05.401Z,1007.32
2019-03-26T05:33:05.459Z,1007.32
2019-03-26T05:34:05.361Z,1007.35
2019-03-26T05:35:05.352Z,1007.33
2019-03-26T05:36:05.347Z,1007.37
2019-03-26T05:37:05.344Z,1007.36
2019-03-26T05:38:05.362Z,1007.37
2019-03-26T05:39:05.302Z,1007.34
2019-03-26T05:40:05.293Z,1007.34
2019-03-26T05:41:05.287Z,1007.36
2019-03-26T05:42:05.278Z,1007.33
2019-03-26T05:43:05.259Z,1007.36
2019-03-26T05:44:05.264Z,1007.36
2019-03-26T05:45:05.261Z,1007.37
2019-03-26T05:46:05.225Z,1007.42
2019-03-26T05:47:05.224Z,1007.37
2019-03-26T05:48:05.208Z,1007.38
2019-03-26T05:49:05.207Z,1007.36
2019-03-26T05:50:05.219Z,1007.30
2019-03-26T05:51:05.173Z,1007.31
2019-03-26T05:52:05.166Z,1007.33
2019-03-26T05:53:05.153Z,1007.32
2019-03-26T05:54:05.140Z,1007.37
2019-03-26T05:55:05.133Z,1007.32
2019-03-26T05:56:05.139Z,1007.33
2019-03-26T05:57:05.104Z,1007.38
2019-03-26T05:58:05.096Z,1007.41
2019-03-26T05:59:05.087Z,1007.39
2019-03-26T06:00:05.082Z,1007.39
2019-03-26T06:01:05.081Z,1007.40
2019-03-26T06:02:14.331Z,1007.41
2019-03-26T06:03:06.036Z,1007.45
2019-03-26T06:04:05.031Z,1007.33
2019-03-26T06:05:05.019Z,1007.41
2019-03-26T06:06:05.004Z,1007.44
2019-03-26T06:07:05.471Z,1007.43
2019-03-26T06:08:05.016Z,1007.46
2019-03-26T06:09:04.985Z,1007.44
2019-03-26T06:10:05.043Z,1007.50
2019-03-26T06:11:04.951Z,1007.49
2019-03-26T06:12:04.944Z,1007.51
2019-03-26T06:13:04.941Z,1007.56
2019-03-26T06:14:04.947Z,1007.59
2019-03-26T06:15:04.913Z,1007.55
2019-03-26T06:16:04.906Z,1007.52
2019-03-26T06:17:04.882Z,1007.55
2019-03-26T06:18:04.884Z,1007.56
2019-03-26T06:19:04.861Z,1007.66
2019-03-26T06:20:04.865Z,1007.54
2019-03-26T06:21:04.837Z,1007.68
2019-03-26T06:22:04.827Z,1007.63
2019-03-26T06:23:04.817Z,1007.66
2019-03-26T06:24:04.806Z,1007.68
2019-03-26T06:25:04.798Z,1007.63
2019-03-26T06:26:04.822Z,1007.67
2019-03-26T06:27:04.775Z,1007.66
2019-03-26T06:28:04.771Z,1007.65
2019-03-26T06:29:04.757Z,1007.64
2019-03-26T06:30:04.739Z,1007.66
2019-03-26T06:31:04.733Z,1007.67
2019-03-26T06:32:04.735Z,1007.68
2019-03-26T06:33:04.716Z,1007.64
2019-03-26T06:34:04.697Z,1007.61
2019-03-26T06:35:04.692Z,1007.59
2019-03-26T06:36:04.674Z,1007.63
2019-03-26T06:37:17.058Z,1007.63
2019-03-26T06:38:05.668Z,1007.64
2019-03-26T06:39:04.643Z,1007.56
2019-03-26T06:40:04.631Z,1007.56
2019-03-26T06:41:04.636Z,1007.58
2019-03-26T06:42:04.609Z,1007.61
2019-03-26T06:43:04.650Z,1007.55
2019-03-26T06:44:04.640Z,1007.58
2019-03-26T06:45:04.588Z,1007.58
2019-03-26T06:46:04.574Z,1007.65
2019-03-26T06:47:04.560Z,1007.68
2019-03-26T06:48:04.784Z,1007.65
2019-03-26T06:49:04.535Z,1007.70
2019-03-26T06:50:04.537Z,1007.70
2019-03-26T06:51:04.512Z,1007.70
2019-03-26T06:52:04.499Z,1007.64
2019-03-26T06:53:04.488Z,1007.68
2019-03-26T06:54:04.476Z,1007.67
2019-03-26T06:55:04.490Z,1007.71
2019-03-26T06:56:04.490Z,1007.69
2019-03-26T06:57:04.446Z,1007.73
2019-03-26T06:58:04.451Z,1007.74
2019-03-26T06:59:04.428Z,1007.74
2019-03-26T07:00:07.017Z,1007.69
2019-03-26T07:01:04.426Z,1007.70
2019-03-26T07:02:04.409Z,1007.76
2019-03-26T07:03:04.387Z,1007.73
2019-03-26T07:04:04.379Z,1007.79
2019-03-26T07:05:04.404Z,1007.73
2019-03-26T07:06:04.354Z,1007.74
2019-03-26T07:07:04.341Z,1007.73
2019-03-26T07:08:04.348Z,1007.78
2019-03-26T07:09:04.322Z,1007.78
2019-03-26T07:10:04.333Z,1007.77
2019-03-26T07:11:04.294Z,1007.80
2019-03-26T07:12:04.284Z,1007.84
2019-03-26T07:13:04.280Z,1007.86
2019-03-26T07:14:04.290Z,1007.80
2019-03-26T07:15:04.255Z,1007.85
2019-03-26T07:16:04.272Z,1007.83
2019-03-26T07:17:04.238Z,1007.91
2019-03-26T07:18:04.224Z,1007.92
2019-03-26T07:19:04.211Z,1007.92
2019-03-26T07:20:04.222Z,1007.95
2019-03-26T07:21:04.190Z,1007.97
2019-03-26T07:22:04.180Z,1007.96
2019-03-26T07:23:04.167Z,1008.00
2019-03-26T07:24:04.159Z,1007.99
2019-03-26T07:25:04.158Z,1008.02
2019-03-26T07:26:04.156Z,1007.97
2019-03-26T07:27:04.138Z,1008.02
2019-03-26T07:28:04.197Z,1008.06
2019-03-26T07:29:04.106Z,1008.06
2019-03-26T07:30:04.101Z,1008.05
2019-03-26T07:31:04.087Z,1008.05
2019-03-26T07:32:04.095Z,1008.11
2019-03-26T07:33:04.065Z,1008.06
2019-03-26T07:34:07.090Z,1008.07
2019-03-26T07:35:04.041Z,1008.06
2019-03-26T07:36:04.047Z,1008.12
2019-03-26T07:37:04.019Z,1008.08
2019-03-26T07:38:04.029Z,1008.06
2019-03-26T07:39:04.001Z,1008.14
2019-03-26T07:40:03.989Z,1008.14
2019-03-26T07:41:03.983Z,1008.17
2019-03-26T07:42:03.970Z,1008.20
2019-03-26T07:43:03.957Z,1008.26
2019-03-26T07:44:03.969Z,1008.27
2019-03-26T07:45:03.936Z,1008.29
2019-03-26T07:46:03.928Z,1008.28
2019-03-26T07:47:03.918Z,1008.31
2019-03-26T07:48:03.909Z,1008.31
2019-03-26T07:49:03.897Z,1008.32
2019-03-26T07:50:03.899Z,1008.28
2019-03-26T07:51:03.876Z,1008.25
2019-03-26T07:52:03.866Z,1008.30
2019-03-26T07:53:03.854Z,1008.26
2019-03-26T07:54:03.845Z,1008.28
2019-03-26T07:55:03.837Z,1008.27
2019-03-26T07:56:03.846Z,1008.23
2019-03-26T07:57:03.816Z,1008.26
2019-03-26T07:58:03.816Z,1008.22
2019-03-26T07:59:03.800Z,1008.22
2019-03-26T08:00:03.782Z,1008.23
2019-03-26T08:01:03.775Z,1008.20
2019-03-26T08:02:03.797Z,1008.19
2019-03-26T08:03:03.755Z,1008.26
2019-03-26T08:04:03.748Z,1008.32
2019-03-26T08:05:03.746Z,1008.30
2019-03-26T08:06:03.725Z,1008.31
2019-03-26T08:07:03.710Z,1008.34
2019-03-26T08:08:03.729Z,1008.36
2019-03-26T08:09:03.697Z,1008.33
2019-03-26T08:10:03.692Z,1008.40
2019-03-26T08:11:03.675Z,1008.43
2019-03-26T08:12:03.752Z,1008.42
2019-03-26T08:13:03.674Z,1008.41
2019-03-26T08:14:03.660Z,1008.43
2019-03-26T08:15:03.668Z,1008.44
2019-03-26T08:16:03.635Z,1008.42
2019-03-26T08:17:03.658Z,1008.47
2019-03-26T08:18:03.612Z,1008.43
2019-03-26T08:19:03.584Z,1008.44
2019-03-26T08:20:03.588Z,1008.41
2019-03-26T08:21:03.566Z,1008.40
2019-03-26T08:22:03.552Z,1008.42
2019-03-26T08:23:03.561Z,1008.38
2019-03-26T08:24:03.534Z,1008.34
2019-03-26T08:25:03.521Z,1008.41
2019-03-26T08:26:03.528Z,1008.37
2019-03-26T08:27:03.510Z,1008.47
2019-03-26T08:28:05.080Z,1008.44
2019-03-26T08:29:03.485Z,1008.43
2019-03-26T08:30:03.471Z,1008.43
2019-03-26T08:31:03.458Z,1008.49
2019-03-26T08:32:03.470Z,1008.48
2019-03-26T08:33:03.441Z,1008.53
2019-03-26T08:34:03.439Z,1008.52
2019-03-26T08:35:03.417Z,1008.52
2019-03-26T08:36:03.405Z,1008.49
2019-03-26T08:37:03.398Z,1008.47
2019-03-26T08:38:12.266Z,1008.57
2019-03-26T08:39:04.378Z,1008.55
2019-03-26T08:40:03.370Z,1008.53
2019-03-26T08:41:03.355Z,1008.46
2019-03-26T08:42:03.357Z,1008.53
2019-03-26T08:43:03.333Z,1008.49
2019-03-26T08:44:03.349Z,1008.49
2019-03-26T08:45:03.305Z,1008.54
2019-03-26T08:46:03.299Z,1008.58
2019-03-26T08:47:03.286Z,1008.69
2019-03-26T08:48:03.270Z,1008.79
2019-03-26T08:49:03.270Z,1008.83
2019-03-26T08:50:03.341Z,1008.79
2019-03-26T08:51:03.247Z,1008.83
2019-03-26T08:52:03.250Z,1008.73
2019-03-26T08:53:03.258Z,1008.74
2019-03-26T08:54:03.203Z,1008.82
2019-03-26T08:55:04.462Z,1008.85
2019-03-26T08:56:03.208Z,1008.94
2019-03-26T08:57:03.169Z,1008.88
2019-03-26T08:58:03.163Z,1008.84
2019-03-26T08:59:03.144Z,1008.81
2019-03-26T09:00:03.138Z,1008.88
2019-03-26T09:01:03.123Z,1008.92
2019-03-26T09:02:03.123Z,1009.00
2019-03-26T09:03:03.097Z,1008.72
2019-03-26T09:04:03.091Z,1008.85
2019-03-26T09:05:03.075Z,1009.02
2019-03-26T09:06:03.062Z,1009.10
2019-03-26T09:07:03.054Z,1009.41
2019-03-26T09:08:03.054Z,1009.12
2019-03-26T09:09:03.044Z,1008.88
2019-03-26T09:10:03.024Z,1008.80
2019-03-26T09:11:03.004Z,1008.79
2019-03-26T09:12:03.072Z,1008.70
2019-03-26T09:13:02.988Z,1008.68
2019-03-26T09:14:02.983Z,1008.64
2019-03-26T09:15:02.961Z,1008.60
2019-03-26T09:16:02.952Z,1008.55
2019-03-26T09:17:02.935Z,1008.54
2019-03-26T09:18:02.923Z,1008.56
2019-03-26T09:19:02.912Z,1008.52
2019-03-26T09:20:02.937Z,1008.53
2019-03-26T09:21:02.894Z,1008.59
2019-03-26T09:22:02.888Z,1008.55
2019-03-26T09:23:02.869Z,1008.51
2019-03-26T09:24:02.869Z,1008.48
2019-03-26T09:25:02.849Z,1008.57
2019-03-26T09:26:02.857Z,1008.63
2019-03-26T09:27:02.822Z,1008.61
2019-03-26T09:28:02.812Z,1008.65
2019-03-26T09:29:02.800Z,1008.64
2019-03-26T09:30:02.796Z,1008.65
2019-03-26T09:31:02.776Z,1008.58
2019-03-26T09:32:02.785Z,1008.60
2019-03-26T09:33:02.753Z,1008.62
2019-03-26T09:34:02.745Z,1008.48
2019-03-26T09:35:02.732Z,1008.51
2019-03-26T09:36:02.720Z,1008.53
2019-03-26T09:37:02.711Z,1008.60
2019-03-26T09:38:02.715Z,1008.61
2019-03-26T09:39:02.686Z,1008.66
2019-03-26T09:40:02.678Z,1008.63
2019-03-26T09:41:02.660Z,1008.62
2019-03-26T09:42:02.657Z,1008.60
2019-03-26T09:43:02.643Z,1008.62
2019-03-26T09:44:02.647Z,1008.63
2019-03-26T09:45:02.617Z,1008.66
2019-03-26T09:46:02.605Z,1008.64
2019-03-26T09:47:15.209Z,1008.64
2019-03-26T09:48:03.577Z,1008.60
2019-03-26T09:49:02.584Z,1008.62
2019-03-26T09:50:02.581Z,1008.69
2019-03-26T09:51:02.548Z,1008.66
2019-03-26T09:52:02.532Z,1008.71
2019-03-26T09:53:02.546Z,1008.75
2019-03-26T09:54:02.522Z,1008.66
2019-03-26T09:55:02.501Z,1008.67
2019-03-26T09:56:02.502Z,1008.62
2019-03-26T09:57:02.482Z,1008.54
2019-03-26T09:58:02.505Z,1008.62
2019-03-26T09:59:02.462Z,1008.58
2019-03-26T10:00:02.439Z,1008.60
2019-03-26T10:01:02.428Z,1008.66
2019-03-26T10:02:02.437Z,1008.64
2019-03-26T10:03:02.413Z,1008.65
2019-03-26T10:04:02.425Z,1008.71
2019-03-26T10:05:02.389Z,1008.70
2019-03-26T10:06:02.377Z,1008.61
2019-03-26T10:07:02.364Z,1008.70
2019-03-26T10:08:02.363Z,1008.63
2019-03-26T10:09:02.339Z,1008.65
2019-03-26T10:10:02.323Z,1008.60
2019-03-26T10:11:02.312Z,1008.62
2019-03-26T10:12:02.299Z,1008.61
2019-03-26T10:13:02.311Z,1008.58
2019-03-26T10:14:02.301Z,1008.60
2019-03-26T10:15:02.270Z,1008.53
2019-03-26T10:16:02.266Z,1008.63
2019-03-26T10:17:02.259Z,1008.64
2019-03-26T10:18:02.230Z,1008.69
2019-03-26T10:19:02.216Z,1008.68
2019-03-26T10:20:02.221Z,1008.69
2019-03-26T10:21:02.238Z,1008.70
2019-03-26T10:22:02.185Z,1008.73
2019-03-26T10:23:02.175Z,1008.70
2019-03-26T10:24:02.157Z,1008.72
2019-03-26T10:25:02.173Z,1008.68
2019-03-26T10:26:02.151Z,1008.75
2019-03-26T10:27:02.122Z,1008.75
2019-03-26T10:28:02.113Z,1008.74
2019-03-26T10:29:18.728Z,1008.81
2019-03-26T10:30:05.617Z,1008.77
2019-03-26T10:31:02.069Z,1008.73
2019-03-26T10:32:02.098Z,1008.71
2019-03-26T10:33:02.049Z,1008.77
2019-03-26T10:34:02.034Z,1008.69
2019-03-26T10:35:02.033Z,1008.66
2019-03-26T10:36:02.279Z,1008.65
2019-03-26T10:37:01.997Z,1008.65
2019-03-26T10:38:02.296Z,1008.68
2019-03-26T10:39:05.607Z,1008.74
2019-03-26T10:40:01.966Z,1008.64
2019-03-26T10:41:01.948Z,1008.64
2019-03-26T10:42:01.962Z,1008.66
2019-03-26T10:43:01.940Z,1008.70
2019-03-26T10:44:02.342Z,1008.65
2019-03-26T10:45:01.991Z,1008.69
2019-03-26T10:46:01.893Z,1008.82
2019-03-26T10:47:01.934Z,1008.84
2019-03-26T10:48:01.909Z,1008.85
2019-03-26T10:49:01.858Z,1009.43
2019-03-26T10:50:01.878Z,1008.76
2019-03-26T10:51:01.835Z,1008.76
2019-03-26T10:52:01.863Z,1008.74
2019-03-26T10:53:01.824Z,1008.91
2019-03-26T10:54:01.804Z,1008.82
2019-03-26T10:55:01.791Z,1008.76
2019-03-26T10:56:01.831Z,1008.77
2019-03-26T10:57:01.829Z,1008.66
2019-03-26T10:58:01.755Z,1008.61
2019-03-26T10:59:04.152Z,1008.60
2019-03-26T11:00:01.782Z,1008.60
2019-03-26T11:01:01.867Z,1008.56
2019-03-26T11:02:01.742Z,1008.56
2019-03-26T11:03:01.882Z,1008.58
2019-03-26T11:04:02.076Z,1008.55
2019-03-26T11:05:01.707Z,1008.61
2019-03-26T11:06:01.769Z,1008.61
2019-03-26T11:07:01.704Z,1008.59
2019-03-26T11:08:01.711Z,1008.47
2019-03-26T11:09:01.627Z,1008.52
2019-03-26T11:10:01.655Z,1008.47
2019-03-26T11:11:01.912Z,1008.41
2019-03-26T11:12:02.046Z,1008.37
2019-03-26T11:13:01.584Z,1008.32
2019-03-26T11:14:01.629Z,1008.31
2019-03-26T11:15:01.563Z,1008.30
2019-03-26T11:16:01.591Z,1008.25
2019-03-26T11:17:01.570Z,1008.19
2019-03-26T11:18:01.531Z,1008.20
2019-03-26T11:19:01.532Z,1008.23
2019-03-26T11:20:01.540Z,1008.21
2019-03-26T11:21:03.062Z,1008.27
2019-03-26T11:22:01.486Z,1008.25
2019-03-26T11:23:01.474Z,1008.25
2019-03-26T11:24:01.458Z,1008.20
2019-03-26T11:25:01.453Z,1008.19
2019-03-26T11:26:01.463Z,1008.22
2019-03-26T11:27:01.428Z,1008.18
2019-03-26T11:28:01.435Z,1008.21
2019-03-26T11:29:01.402Z,1008.23
2019-03-26T11:30:01.396Z,1008.24
2019-03-26T11:31:01.387Z,1008.25
2019-03-26T11:32:01.386Z,1008.27
2019-03-26T11:33:01.358Z,1008.22
2019-03-26T11:34:01.346Z,1008.24
2019-03-26T11:35:01.350Z,1008.24
2019-03-26T11:36:01.330Z,1008.26
2019-03-26T11:37:01.327Z,1008.21
2019-03-26T11:38:01.327Z,1008.20
2019-03-26T11:39:01.291Z,1008.20
2019-03-26T11:40:01.286Z,1008.18
2019-03-26T11:41:01.271Z,1008.20
2019-03-26T11:42:01.256Z,1008.15
2019-03-26T11:43:01.243Z,1008.15
2019-03-26T11:44:04.551Z,1008.13
2019-03-26T11:45:01.224Z,1008.11
2019-03-26T11:46:01.213Z,1008.06
2019-03-26T11:47:01.196Z,1008.06
2019-03-26T11:48:01.192Z,1008.06
2019-03-26T11:49:01.181Z,1008.03
2019-03-26T11:50:01.181Z,1008.01
2019-03-26T11:51:01.152Z,1008.02
2019-03-26T11:52:01.145Z,1008.04
2019-03-26T11:53:01.130Z,1008.12
2019-03-26T11:54:01.122Z,1008.07
2019-03-26T11:55:01.108Z,1008.06
2019-03-26T11:56:01.115Z,1008.08
2019-03-26T11:57:01.087Z,1008.07
2019-03-26T11:58:01.071Z,1008.08
2019-03-26T11:59:01.073Z,1008.05
2019-03-26T12:00:01.063Z,1008.00
2019-03-26T12:01:01.037Z,1008.08
2019-03-26T12:02:01.041Z,1008.05
2019-03-26T12:03:01.016Z,1008.06
2019-03-26T12:04:01.004Z,1008.05
2019-03-26T12:05:00.994Z,1008.11